sensor_id;sensor_type;location;lat;lon;timestamp;P1;durP1;ratioP1;P2;durP2;ratioP2
8001;SDS011;4046;48.774;8.732;2022-12-10T00:00:40;2.30;;;2.13;;
8001;SDS011;4046;48.774;8.732;2022-12-10T00:03:06;2.20;;;2.10;;
8001;SDS011;4046;48.774;8.732;2022-12-10T00:05:33;2.43;;;2.03;;
8001;SDS011;4046;48.774;8.732;2022-12-10T00:08:00;2.40;;;2.30;;
8001;SDS011;4046;48.774;8.732;2022-12-10T00:10:26;2.30;;;2.20;;
8001;SDS011;4046;48.774;8.732;2022-12-10T00:12:52;2.77;;;2.57;;
8001;SDS011;4046;48.774;8.732;2022-12-10T00:15:18;2.20;;;2.10;;
8001;SDS011;4046;48.774;8.732;2022-12-10T00:17:45;2.33;;;2.23;;
8001;SDS011;4046;48.774;8.732;2022-12-10T00:20:11;2.20;;;2.10;;
8001;SDS011;4046;48.774;8.732;2022-12-10T00:22:37;2.10;;;2.00;;
8001;SDS011;4046;48.774;8.732;2022-12-10T00:25:03;2.90;;;2.70;;
8001;SDS011;4046;48.774;8.732;2022-12-10T00:27:30;2.50;;;2.30;;
8001;SDS011;4046;48.774;8.732;2022-12-10T00:29:57;2.47;;;2.30;;
8001;SDS011;4046;48.774;8.732;2022-12-10T00:32:23;2.50;;;2.27;;
8001;SDS011;4046;48.774;8.732;2022-12-10T00:34:49;2.50;;;2.40;;
8001;SDS011;4046;48.774;8.732;2022-12-10T00:37:15;2.40;;;2.20;;
8001;SDS011;4046;48.774;8.732;2022-12-10T00:39:41;2.10;;;2.00;;
8001;SDS011;4046;48.774;8.732;2022-12-10T00:42:07;2.20;;;2.10;;
8001;SDS011;4046;48.774;8.732;2022-12-10T00:44:34;2.20;;;2.10;;
8001;SDS011;4046;48.774;8.732;2022-12-10T00:47:00;2.10;;;2.00;;
8001;SDS011;4046;48.774;8.732;2022-12-10T00:49:26;2.37;;;2.27;;
8001;SDS011;4046;48.774;8.732;2022-12-10T00:51:52;2.10;;;2.00;;
8001;SDS011;4046;48.774;8.732;2022-12-10T00:54:18;2.30;;;2.20;;
8001;SDS011;4046;48.774;8.732;2022-12-10T00:56:44;2.37;;;2.27;;
8001;SDS011;4046;48.774;8.732;2022-12-10T00:59:11;2.20;;;2.10;;
8001;SDS011;4046;48.774;8.732;2022-12-10T01:01:38;2.13;;;2.03;;
8001;SDS011;4046;48.774;8.732;2022-12-10T01:04:07;2.20;;;2.10;;
8001;SDS011;4046;48.774;8.732;2022-12-10T01:06:36;2.00;;;1.90;;
8001;SDS011;4046;48.774;8.732;2022-12-10T01:09:11;2.23;;;2.13;;
8001;SDS011;4046;48.774;8.732;2022-12-10T01:11:40;2.03;;;1.93;;
8001;SDS011;4046;48.774;8.732;2022-12-10T01:14:08;2.70;;;2.50;;
8001;SDS011;4046;48.774;8.732;2022-12-10T01:16:36;2.60;;;2.40;;
8001;SDS011;4046;48.774;8.732;2022-12-10T01:19:03;2.20;;;2.10;;
8001;SDS011;4046;48.774;8.732;2022-12-10T01:21:29;1.97;;;1.87;;
8001;SDS011;4046;48.774;8.732;2022-12-10T01:23:56;2.30;;;2.20;;
8001;SDS011;4046;48.774;8.732;2022-12-10T01:26:24;2.13;;;2.03;;
8001;SDS011;4046;48.774;8.732;2022-12-10T01:28:52;2.43;;;2.33;;
8001;SDS011;4046;48.774;8.732;2022-12-10T01:31:20;2.27;;;2.07;;
8001;SDS011;4046;48.774;8.732;2022-12-10T01:33:51;2.07;;;1.97;;
8001;SDS011;4046;48.774;8.732;2022-12-10T01:36:28;2.10;;;2.00;;
8001;SDS011;4046;48.774;8.732;2022-12-10T01:38:56;2.27;;;2.17;;
8001;SDS011;4046;48.774;8.732;2022-12-10T01:41:30;2.47;;;2.27;;
8001;SDS011;4046;48.774;8.732;2022-12-10T01:46:34;2.00;;;1.90;;
8001;SDS011;4046;48.774;8.732;2022-12-10T01:49:09;2.10;;;2.00;;
8001;SDS011;4046;48.774;8.732;2022-12-10T01:51:38;2.17;;;2.07;;
8001;SDS011;4046;48.774;8.732;2022-12-10T01:54:11;2.00;;;1.90;;
8001;SDS011;4046;48.774;8.732;2022-12-10T01:56:40;2.00;;;1.90;;
8001;SDS011;4046;48.774;8.732;2022-12-10T01:59:09;1.80;;;1.70;;
8001;SDS011;4046;48.774;8.732;2022-12-10T02:07:19;2.00;;;1.90;;
8001;SDS011;4046;48.774;8.732;2022-12-10T02:12:53;1.90;;;1.80;;
8001;SDS011;4046;48.774;8.732;2022-12-10T02:15:22;2.37;;;2.27;;
8001;SDS011;4046;48.774;8.732;2022-12-10T02:18:08;2.20;;;2.07;;
8001;SDS011;4046;48.774;8.732;2022-12-10T02:20:47;2.10;;;2.00;;
8001;SDS011;4046;48.774;8.732;2022-12-10T02:23:20;2.00;;;1.90;;
8001;SDS011;4046;48.774;8.732;2022-12-10T02:25:54;2.50;;;2.40;;
8001;SDS011;4046;48.774;8.732;2022-12-10T02:30:59;1.90;;;1.80;;
8001;SDS011;4046;48.774;8.732;2022-12-10T02:33:27;2.33;;;2.23;;
8001;SDS011;4046;48.774;8.732;2022-12-10T02:35:55;2.20;;;2.10;;
8001;SDS011;4046;48.774;8.732;2022-12-10T02:38:26;2.17;;;2.07;;
8001;SDS011;4046;48.774;8.732;2022-12-10T02:40:58;2.60;;;2.40;;
8001;SDS011;4046;48.774;8.732;2022-12-10T02:43:27;1.87;;;1.77;;
8001;SDS011;4046;48.774;8.732;2022-12-10T02:45:55;2.10;;;2.00;;
8001;SDS011;4046;48.774;8.732;2022-12-10T02:48:23;2.03;;;1.93;;
8001;SDS011;4046;48.774;8.732;2022-12-10T02:50:50;2.00;;;1.90;;
8001;SDS011;4046;48.774;8.732;2022-12-10T02:53:16;2.10;;;2.00;;
8001;SDS011;4046;48.774;8.732;2022-12-10T02:56:06;2.67;;;2.50;;
8001;SDS011;4046;48.774;8.732;2022-12-10T02:58:57;2.17;;;2.07;;
8001;SDS011;4046;48.774;8.732;2022-12-10T03:01:37;2.57;;;2.37;;
8001;SDS011;4046;48.774;8.732;2022-12-10T03:04:26;2.03;;;1.93;;
8001;SDS011;4046;48.774;8.732;2022-12-10T03:07:00;2.10;;;2.00;;
8001;SDS011;4046;48.774;8.732;2022-12-10T03:09:34;2.13;;;2.03;;
8001;SDS011;4046;48.774;8.732;2022-12-10T03:12:15;2.10;;;2.00;;
8001;SDS011;4046;48.774;8.732;2022-12-10T03:14:48;2.23;;;2.03;;
8001;SDS011;4046;48.774;8.732;2022-12-10T03:17:14;1.87;;;1.77;;
8001;SDS011;4046;48.774;8.732;2022-12-10T03:19:42;2.00;;;1.90;;
8001;SDS011;4046;48.774;8.732;2022-12-10T03:22:13;2.20;;;2.10;;
8001;SDS011;4046;48.774;8.732;2022-12-10T03:24:41;2.27;;;2.17;;
8001;SDS011;4046;48.774;8.732;2022-12-10T03:27:09;2.10;;;2.00;;
8001;SDS011;4046;48.774;8.732;2022-12-10T03:29:39;2.10;;;2.00;;
8001;SDS011;4046;48.774;8.732;2022-12-10T03:32:11;2.10;;;2.00;;
8001;SDS011;4046;48.774;8.732;2022-12-10T03:34:38;2.20;;;2.07;;
8001;SDS011;4046;48.774;8.732;2022-12-10T03:37:05;2.33;;;2.17;;
8001;SDS011;4046;48.774;8.732;2022-12-10T03:39:32;2.33;;;2.23;;
8001;SDS011;4046;48.774;8.732;2022-12-10T03:41:59;2.00;;;1.90;;
8001;SDS011;4046;48.774;8.732;2022-12-10T03:44:35;2.10;;;2.00;;
8001;SDS011;4046;48.774;8.732;2022-12-10T03:47:04;2.00;;;1.90;;
8001;SDS011;4046;48.774;8.732;2022-12-10T03:49:31;2.50;;;2.30;;
8001;SDS011;4046;48.774;8.732;2022-12-10T03:51:57;2.00;;;1.90;;
8001;SDS011;4046;48.774;8.732;2022-12-10T03:54:24;1.90;;;1.80;;
8001;SDS011;4046;48.774;8.732;2022-12-10T03:56:50;2.20;;;2.10;;
8001;SDS011;4046;48.774;8.732;2022-12-10T03:59:16;2.43;;;2.33;;
8001;SDS011;4046;48.774;8.732;2022-12-10T04:01:42;2.20;;;2.10;;
8001;SDS011;4046;48.774;8.732;2022-12-10T04:04:09;2.00;;;1.90;;
8001;SDS011;4046;48.774;8.732;2022-12-10T04:06:39;2.27;;;2.17;;
8001;SDS011;4046;48.774;8.732;2022-12-10T04:09:08;2.00;;;1.90;;
8001;SDS011;4046;48.774;8.732;2022-12-10T04:11:36;2.00;;;1.90;;
8001;SDS011;4046;48.774;8.732;2022-12-10T04:14:03;1.80;;;1.70;;
8001;SDS011;4046;48.774;8.732;2022-12-10T04:16:49;1.77;;;1.67;;
8001;SDS011;4046;48.774;8.732;2022-12-10T04:19:16;2.20;;;2.10;;
8001;SDS011;4046;48.774;8.732;2022-12-10T04:21:44;2.23;;;1.93;;
8001;SDS011;4046;48.774;8.732;2022-12-10T04:24:31;2.00;;;1.90;;
8001;SDS011;4046;48.774;8.732;2022-12-10T04:27:21;1.90;;;1.80;;
8001;SDS011;4046;48.774;8.732;2022-12-10T04:29:56;2.20;;;2.10;;
8001;SDS011;4046;48.774;8.732;2022-12-10T04:32:23;2.20;;;2.10;;
8001;SDS011;4046;48.774;8.732;2022-12-10T04:34:51;2.20;;;2.00;;
8001;SDS011;4046;48.774;8.732;2022-12-10T04:37:17;2.07;;;1.97;;
8001;SDS011;4046;48.774;8.732;2022-12-10T04:39:44;2.00;;;1.90;;
8001;SDS011;4046;48.774;8.732;2022-12-10T04:42:11;1.77;;;1.67;;
8001;SDS011;4046;48.774;8.732;2022-12-10T04:44:37;2.40;;;2.30;;
8001;SDS011;4046;48.774;8.732;2022-12-10T04:47:04;2.10;;;2.00;;
8001;SDS011;4046;48.774;8.732;2022-12-10T04:49:33;1.90;;;1.80;;
8001;SDS011;4046;48.774;8.732;2022-12-10T04:51:59;2.00;;;1.90;;
8001;SDS011;4046;48.774;8.732;2022-12-10T04:54:26;1.93;;;1.83;;
8001;SDS011;4046;48.774;8.732;2022-12-10T04:56:52;1.93;;;1.83;;
8001;SDS011;4046;48.774;8.732;2022-12-10T04:59:18;2.00;;;1.90;;
8001;SDS011;4046;48.774;8.732;2022-12-10T05:01:45;2.00;;;1.90;;
8001;SDS011;4046;48.774;8.732;2022-12-10T05:04:12;2.00;;;1.90;;
8001;SDS011;4046;48.774;8.732;2022-12-10T05:06:40;2.10;;;2.00;;
8001;SDS011;4046;48.774;8.732;2022-12-10T05:09:06;2.13;;;2.03;;
8001;SDS011;4046;48.774;8.732;2022-12-10T05:11:33;2.10;;;2.00;;
8001;SDS011;4046;48.774;8.732;2022-12-10T05:13:59;2.17;;;2.07;;
8001;SDS011;4046;48.774;8.732;2022-12-10T05:16:26;1.80;;;1.70;;
8001;SDS011;4046;48.774;8.732;2022-12-10T05:18:54;1.73;;;1.63;;
8001;SDS011;4046;48.774;8.732;2022-12-10T05:21:22;1.93;;;1.83;;
8001;SDS011;4046;48.774;8.732;2022-12-10T05:23:50;1.90;;;1.80;;
8001;SDS011;4046;48.774;8.732;2022-12-10T05:26:18;1.83;;;1.73;;
8001;SDS011;4046;48.774;8.732;2022-12-10T05:28:51;2.27;;;1.73;;
8001;SDS011;4046;48.774;8.732;2022-12-10T05:31:23;2.10;;;2.00;;
8001;SDS011;4046;48.774;8.732;2022-12-10T05:33:53;1.93;;;1.83;;
8001;SDS011;4046;48.774;8.732;2022-12-10T05:36:21;2.00;;;1.90;;
8001;SDS011;4046;48.774;8.732;2022-12-10T05:38:49;2.27;;;2.17;;
8001;SDS011;4046;48.774;8.732;2022-12-10T05:41:17;2.17;;;2.07;;
8001;SDS011;4046;48.774;8.732;2022-12-10T05:43:45;1.80;;;1.70;;
8001;SDS011;4046;48.774;8.732;2022-12-10T05:46:13;2.10;;;2.00;;
8001;SDS011;4046;48.774;8.732;2022-12-10T05:48:41;1.90;;;1.80;;
8001;SDS011;4046;48.774;8.732;2022-12-10T05:51:09;1.83;;;1.73;;
8001;SDS011;4046;48.774;8.732;2022-12-10T05:53:40;2.07;;;1.93;;
8001;SDS011;4046;48.774;8.732;2022-12-10T05:56:08;1.93;;;1.83;;
8001;SDS011;4046;48.774;8.732;2022-12-10T05:58:40;2.10;;;2.00;;
8001;SDS011;4046;48.774;8.732;2022-12-10T06:01:11;1.93;;;1.83;;
8001;SDS011;4046;48.774;8.732;2022-12-10T06:03:39;2.20;;;2.10;;
8001;SDS011;4046;48.774;8.732;2022-12-10T06:06:05;2.10;;;2.00;;
8001;SDS011;4046;48.774;8.732;2022-12-10T06:08:32;2.00;;;1.90;;
8001;SDS011;4046;48.774;8.732;2022-12-10T06:11:02;2.00;;;1.90;;
8001;SDS011;4046;48.774;8.732;2022-12-10T06:13:28;2.10;;;2.00;;
8001;SDS011;4046;48.774;8.732;2022-12-10T06:15:55;1.80;;;1.70;;
8001;SDS011;4046;48.774;8.732;2022-12-10T06:18:21;2.10;;;2.00;;
8001;SDS011;4046;48.774;8.732;2022-12-10T06:20:47;1.83;;;1.73;;
8001;SDS011;4046;48.774;8.732;2022-12-10T06:23:13;2.20;;;2.10;;
8001;SDS011;4046;48.774;8.732;2022-12-10T06:25:40;2.00;;;1.90;;
8001;SDS011;4046;48.774;8.732;2022-12-10T06:28:06;1.90;;;1.80;;
8001;SDS011;4046;48.774;8.732;2022-12-10T06:30:34;1.87;;;1.77;;
8001;SDS011;4046;48.774;8.732;2022-12-10T06:33:00;1.93;;;1.83;;
8001;SDS011;4046;48.774;8.732;2022-12-10T06:35:26;2.00;;;1.90;;
8001;SDS011;4046;48.774;8.732;2022-12-10T06:37:53;2.27;;;2.07;;
8001;SDS011;4046;48.774;8.732;2022-12-10T06:40:19;1.70;;;1.60;;
8001;SDS011;4046;48.774;8.732;2022-12-10T06:42:45;2.07;;;1.97;;
8001;SDS011;4046;48.774;8.732;2022-12-10T06:45:11;2.03;;;1.93;;
8001;SDS011;4046;48.774;8.732;2022-12-10T06:47:38;1.70;;;1.60;;
8001;SDS011;4046;48.774;8.732;2022-12-10T06:50:04;2.00;;;1.90;;
8001;SDS011;4046;48.774;8.732;2022-12-10T06:52:30;2.17;;;2.07;;
8001;SDS011;4046;48.774;8.732;2022-12-10T06:54:57;1.70;;;1.60;;
8001;SDS011;4046;48.774;8.732;2022-12-10T06:57:23;2.00;;;1.90;;
8001;SDS011;4046;48.774;8.732;2022-12-10T06:59:49;1.80;;;1.70;;
8001;SDS011;4046;48.774;8.732;2022-12-10T07:02:15;1.90;;;1.80;;
8001;SDS011;4046;48.774;8.732;2022-12-10T07:04:41;2.00;;;1.90;;
8001;SDS011;4046;48.774;8.732;2022-12-10T07:07:07;2.13;;;1.93;;
8001;SDS011;4046;48.774;8.732;2022-12-10T07:09:34;1.90;;;1.80;;
8001;SDS011;4046;48.774;8.732;2022-12-10T07:12:00;2.07;;;1.97;;
8001;SDS011;4046;48.774;8.732;2022-12-10T07:14:26;1.70;;;1.60;;
8001;SDS011;4046;48.774;8.732;2022-12-10T07:16:52;1.90;;;1.80;;
8001;SDS011;4046;48.774;8.732;2022-12-10T07:19:19;1.73;;;1.63;;
8001;SDS011;4046;48.774;8.732;2022-12-10T07:21:45;2.10;;;2.00;;
8001;SDS011;4046;48.774;8.732;2022-12-10T07:24:14;2.00;;;1.90;;
8001;SDS011;4046;48.774;8.732;2022-12-10T07:26:43;2.20;;;2.10;;
8001;SDS011;4046;48.774;8.732;2022-12-10T07:29:18;1.83;;;1.73;;
8001;SDS011;4046;48.774;8.732;2022-12-10T07:31:46;2.17;;;2.07;;
8001;SDS011;4046;48.774;8.732;2022-12-10T07:34:14;1.93;;;1.83;;
8001;SDS011;4046;48.774;8.732;2022-12-10T07:36:40;2.03;;;1.93;;
8001;SDS011;4046;48.774;8.732;2022-12-10T07:39:07;1.90;;;1.80;;
8001;SDS011;4046;48.774;8.732;2022-12-10T07:41:35;1.90;;;1.80;;
8001;SDS011;4046;48.774;8.732;2022-12-10T07:44:02;1.77;;;1.67;;
8001;SDS011;4046;48.774;8.732;2022-12-10T07:46:32;1.90;;;1.80;;
8001;SDS011;4046;48.774;8.732;2022-12-10T07:48:59;2.20;;;2.10;;
8001;SDS011;4046;48.774;8.732;2022-12-10T07:51:26;1.83;;;1.73;;
8001;SDS011;4046;48.774;8.732;2022-12-10T07:53:53;1.90;;;1.80;;
8001;SDS011;4046;48.774;8.732;2022-12-10T07:56:20;2.03;;;1.93;;
8001;SDS011;4046;48.774;8.732;2022-12-10T07:58:48;2.30;;;2.20;;
8001;SDS011;4046;48.774;8.732;2022-12-10T08:01:16;2.00;;;1.90;;
8001;SDS011;4046;48.774;8.732;2022-12-10T08:03:44;2.40;;;2.20;;
8001;SDS011;4046;48.774;8.732;2022-12-10T08:06:14;2.73;;;2.53;;
8001;SDS011;4046;48.774;8.732;2022-12-10T08:08:43;2.50;;;2.30;;
8001;SDS011;4046;48.774;8.732;2022-12-10T08:11:09;2.30;;;2.20;;
8001;SDS011;4046;48.774;8.732;2022-12-10T08:13:37;2.40;;;2.20;;
8001;SDS011;4046;48.774;8.732;2022-12-10T08:16:22;2.10;;;2.00;;
8001;SDS011;4046;48.774;8.732;2022-12-10T08:18:51;2.10;;;2.00;;
8001;SDS011;4046;48.774;8.732;2022-12-10T08:21:18;2.30;;;2.20;;
8001;SDS011;4046;48.774;8.732;2022-12-10T08:23:46;2.60;;;2.40;;
8001;SDS011;4046;48.774;8.732;2022-12-10T08:26:13;2.30;;;2.20;;
8001;SDS011;4046;48.774;8.732;2022-12-10T08:28:41;2.97;;;2.70;;
8001;SDS011;4046;48.774;8.732;2022-12-10T08:31:09;2.53;;;2.33;;
8001;SDS011;4046;48.774;8.732;2022-12-10T08:33:37;2.57;;;2.37;;
8001;SDS011;4046;48.774;8.732;2022-12-10T08:36:05;2.57;;;2.37;;
8001;SDS011;4046;48.774;8.732;2022-12-10T08:38:32;2.47;;;2.27;;
8001;SDS011;4046;48.774;8.732;2022-12-10T08:40:59;2.50;;;2.30;;
8001;SDS011;4046;48.774;8.732;2022-12-10T08:43:30;2.40;;;2.30;;
8001;SDS011;4046;48.774;8.732;2022-12-10T08:45:59;2.93;;;2.73;;
8001;SDS011;4046;48.774;8.732;2022-12-10T08:48:26;2.50;;;2.23;;
8001;SDS011;4046;48.774;8.732;2022-12-10T08:50:52;2.60;;;2.40;;
8001;SDS011;4046;48.774;8.732;2022-12-10T08:53:18;2.73;;;2.53;;
8001;SDS011;4046;48.774;8.732;2022-12-10T08:55:44;3.00;;;2.43;;
8001;SDS011;4046;48.774;8.732;2022-12-10T08:58:11;2.57;;;2.37;;
8001;SDS011;4046;48.774;8.732;2022-12-10T09:00:37;2.83;;;2.63;;
8001;SDS011;4046;48.774;8.732;2022-12-10T09:03:03;2.57;;;2.37;;
8001;SDS011;4046;48.774;8.732;2022-12-10T09:05:29;3.00;;;2.80;;
8001;SDS011;4046;48.774;8.732;2022-12-10T09:07:56;2.30;;;2.10;;
8001;SDS011;4046;48.774;8.732;2022-12-10T09:10:22;2.57;;;2.37;;
8001;SDS011;4046;48.774;8.732;2022-12-10T09:12:48;2.70;;;2.50;;
8001;SDS011;4046;48.774;8.732;2022-12-10T09:15:14;2.50;;;2.30;;
8001;SDS011;4046;48.774;8.732;2022-12-10T09:17:40;2.80;;;2.60;;
8001;SDS011;4046;48.774;8.732;2022-12-10T09:20:07;2.97;;;2.70;;
8001;SDS011;4046;48.774;8.732;2022-12-10T09:22:33;2.70;;;2.50;;
8001;SDS011;4046;48.774;8.732;2022-12-10T09:25:03;2.43;;;2.23;;
8001;SDS011;4046;48.774;8.732;2022-12-10T09:27:31;3.00;;;2.70;;
8001;SDS011;4046;48.774;8.732;2022-12-10T09:29:57;2.70;;;2.50;;
8001;SDS011;4046;48.774;8.732;2022-12-10T09:32:24;2.40;;;2.30;;
8001;SDS011;4046;48.774;8.732;2022-12-10T09:34:50;2.60;;;2.40;;
8001;SDS011;4046;48.774;8.732;2022-12-10T09:37:17;2.40;;;2.20;;
8001;SDS011;4046;48.774;8.732;2022-12-10T09:39:43;2.93;;;2.73;;
8001;SDS011;4046;48.774;8.732;2022-12-10T09:45:15;2.90;;;2.70;;
8001;SDS011;4046;48.774;8.732;2022-12-10T09:47:55;2.97;;;2.77;;
8001;SDS011;4046;48.774;8.732;2022-12-10T09:53:14;2.47;;;2.30;;
8001;SDS011;4046;48.774;8.732;2022-12-10T09:55:45;2.60;;;2.40;;
8001;SDS011;4046;48.774;8.732;2022-12-10T09:58:14;2.60;;;2.40;;
8001;SDS011;4046;48.774;8.732;2022-12-10T10:00:44;2.30;;;2.20;;
8001;SDS011;4046;48.774;8.732;2022-12-10T10:03:13;2.30;;;2.10;;
8001;SDS011;4046;48.774;8.732;2022-12-10T10:05:43;2.50;;;2.30;;
8001;SDS011;4046;48.774;8.732;2022-12-10T10:08:13;2.70;;;2.50;;
8001;SDS011;4046;48.774;8.732;2022-12-10T10:10:49;2.60;;;2.40;;
8001;SDS011;4046;48.774;8.732;2022-12-10T10:13:18;2.43;;;2.23;;
8001;SDS011;4046;48.774;8.732;2022-12-10T10:18:57;2.40;;;2.30;;
8001;SDS011;4046;48.774;8.732;2022-12-10T10:21:30;2.73;;;2.53;;
8001;SDS011;4046;48.774;8.732;2022-12-10T10:24:01;2.80;;;2.60;;
8001;SDS011;4046;48.774;8.732;2022-12-10T10:26:29;2.50;;;2.30;;
8001;SDS011;4046;48.774;8.732;2022-12-10T10:28:56;2.50;;;2.30;;
8001;SDS011;4046;48.774;8.732;2022-12-10T10:31:26;2.47;;;2.37;;
8001;SDS011;4046;48.774;8.732;2022-12-10T10:33:55;2.40;;;2.20;;
8001;SDS011;4046;48.774;8.732;2022-12-10T10:36:24;2.80;;;2.60;;
8001;SDS011;4046;48.774;8.732;2022-12-10T10:38:53;2.60;;;2.40;;
8001;SDS011;4046;48.774;8.732;2022-12-10T10:41:19;2.57;;;2.37;;
8001;SDS011;4046;48.774;8.732;2022-12-10T10:43:46;2.13;;;2.03;;
8001;SDS011;4046;48.774;8.732;2022-12-10T10:48:46;2.40;;;2.30;;
8001;SDS011;4046;48.774;8.732;2022-12-10T10:56:08;2.40;;;2.20;;
8001;SDS011;4046;48.774;8.732;2022-12-10T10:58:35;2.83;;;2.63;;
8001;SDS011;4046;48.774;8.732;2022-12-10T11:01:10;2.93;;;2.73;;
8001;SDS011;4046;48.774;8.732;2022-12-10T11:03:36;3.00;;;2.80;;
8001;SDS011;4046;48.774;8.732;2022-12-10T11:06:11;2.67;;;2.50;;
8001;SDS011;4046;48.774;8.732;2022-12-10T11:08:38;2.63;;;2.43;;
8001;SDS011;4046;48.774;8.732;2022-12-10T11:11:11;3.30;;;3.10;;
8001;SDS011;4046;48.774;8.732;2022-12-10T11:13:42;2.70;;;2.50;;
8001;SDS011;4046;48.774;8.732;2022-12-10T11:18:41;2.93;;;2.73;;
8001;SDS011;4046;48.774;8.732;2022-12-10T11:21:17;2.90;;;2.70;;
8001;SDS011;4046;48.774;8.732;2022-12-10T11:23:48;2.87;;;2.67;;
8001;SDS011;4046;48.774;8.732;2022-12-10T11:26:21;2.50;;;2.40;;
8001;SDS011;4046;48.774;8.732;2022-12-10T11:31:54;3.03;;;2.83;;
8001;SDS011;4046;48.774;8.732;2022-12-10T11:37:16;2.57;;;2.37;;
8001;SDS011;4046;48.774;8.732;2022-12-10T11:46:12;2.70;;;2.50;;
8001;SDS011;4046;48.774;8.732;2022-12-10T11:49:02;2.30;;;2.10;;
8001;SDS011;4046;48.774;8.732;2022-12-10T11:51:50;2.60;;;2.40;;
8001;SDS011;4046;48.774;8.732;2022-12-10T11:54:33;2.53;;;2.43;;
8001;SDS011;4046;48.774;8.732;2022-12-10T11:57:14;2.57;;;2.40;;
8001;SDS011;4046;48.774;8.732;2022-12-10T11:59:48;2.70;;;2.50;;
8001;SDS011;4046;48.774;8.732;2022-12-10T12:02:30;2.97;;;2.77;;
8001;SDS011;4046;48.774;8.732;2022-12-10T12:05:19;2.77;;;2.57;;
8001;SDS011;4046;48.774;8.732;2022-12-10T12:10:52;2.80;;;2.60;;
8001;SDS011;4046;48.774;8.732;2022-12-10T12:13:52;2.37;;;2.17;;
8001;SDS011;4046;48.774;8.732;2022-12-10T12:16:33;2.50;;;2.40;;
8001;SDS011;4046;48.774;8.732;2022-12-10T12:19:11;2.50;;;2.30;;
8001;SDS011;4046;48.774;8.732;2022-12-10T12:21:42;2.80;;;2.60;;
8001;SDS011;4046;48.774;8.732;2022-12-10T12:24:12;2.57;;;2.37;;
8001;SDS011;4046;48.774;8.732;2022-12-10T12:26:52;2.77;;;2.50;;
8001;SDS011;4046;48.774;8.732;2022-12-10T12:35:20;2.50;;;2.33;;
8001;SDS011;4046;48.774;8.732;2022-12-10T12:38:18;4.30;;;2.77;;
8001;SDS011;4046;48.774;8.732;2022-12-10T12:46:01;4.33;;;2.70;;
8001;SDS011;4046;48.774;8.732;2022-12-10T12:48:49;3.80;;;2.60;;
8001;SDS011;4046;48.774;8.732;2022-12-10T12:54:21;3.60;;;2.63;;
8001;SDS011;4046;48.774;8.732;2022-12-10T12:59:42;2.40;;;2.20;;
8001;SDS011;4046;48.774;8.732;2022-12-10T13:04:44;3.10;;;2.57;;
8001;SDS011;4046;48.774;8.732;2022-12-10T13:10:23;6.13;;;2.93;;
8001;SDS011;4046;48.774;8.732;2022-12-10T13:12:45;3.90;;;2.67;;
8001;SDS011;4046;48.774;8.732;2022-12-10T13:15:20;7.13;;;3.50;;
8001;SDS011;4046;48.774;8.732;2022-12-10T13:28:26;3.70;;;2.77;;
8001;SDS011;4046;48.774;8.732;2022-12-10T13:31:07;3.00;;;2.70;;
8001;SDS011;4046;48.774;8.732;2022-12-10T13:36:29;6.93;;;3.03;;
8001;SDS011;4046;48.774;8.732;2022-12-10T13:39:32;3.57;;;2.67;;
8001;SDS011;4046;48.774;8.732;2022-12-10T13:45:02;3.93;;;2.90;;
8001;SDS011;4046;48.774;8.732;2022-12-10T13:47:42;2.87;;;2.67;;
8001;SDS011;4046;48.774;8.732;2022-12-10T13:50:16;3.37;;;2.90;;
8001;SDS011;4046;48.774;8.732;2022-12-10T14:06:22;5.93;;;2.40;;
8001;SDS011;4046;48.774;8.732;2022-12-10T14:11:23;2.57;;;2.37;;
8001;SDS011;4046;48.774;8.732;2022-12-10T14:13:57;3.10;;;2.40;;
8001;SDS011;4046;48.774;8.732;2022-12-10T14:16:30;3.00;;;2.80;;
8001;SDS011;4046;48.774;8.732;2022-12-10T14:18:58;3.40;;;2.53;;
8001;SDS011;4046;48.774;8.732;2022-12-10T14:21:27;2.87;;;2.63;;
8001;SDS011;4046;48.774;8.732;2022-12-10T14:23:58;2.50;;;2.30;;
8001;SDS011;4046;48.774;8.732;2022-12-10T14:26:29;2.73;;;2.53;;
8001;SDS011;4046;48.774;8.732;2022-12-10T14:28:58;2.57;;;2.37;;
8001;SDS011;4046;48.774;8.732;2022-12-10T14:31:33;2.73;;;2.53;;
8001;SDS011;4046;48.774;8.732;2022-12-10T14:34:11;2.77;;;2.57;;
8001;SDS011;4046;48.774;8.732;2022-12-10T14:36:44;2.93;;;2.40;;
8001;SDS011;4046;48.774;8.732;2022-12-10T14:39:16;2.70;;;2.50;;
8001;SDS011;4046;48.774;8.732;2022-12-10T14:41:50;2.57;;;2.00;;
8001;SDS011;4046;48.774;8.732;2022-12-10T14:44:18;2.30;;;2.10;;
8001;SDS011;4046;48.774;8.732;2022-12-10T14:46:49;2.97;;;2.60;;
8001;SDS011;4046;48.774;8.732;2022-12-10T14:49:17;2.60;;;2.40;;
8001;SDS011;4046;48.774;8.732;2022-12-10T14:51:45;2.13;;;1.93;;
8001;SDS011;4046;48.774;8.732;2022-12-10T14:54:33;2.40;;;2.20;;
8001;SDS011;4046;48.774;8.732;2022-12-10T14:57:08;3.13;;;2.30;;
8001;SDS011;4046;48.774;8.732;2022-12-10T14:59:42;2.50;;;2.30;;
8001;SDS011;4046;48.774;8.732;2022-12-10T15:02:36;2.57;;;2.37;;
8001;SDS011;4046;48.774;8.732;2022-12-10T15:05:18;2.70;;;2.50;;
8001;SDS011;4046;48.774;8.732;2022-12-10T15:08:03;2.50;;;2.30;;
8001;SDS011;4046;48.774;8.732;2022-12-10T15:10:32;1.73;;;1.63;;
8001;SDS011;4046;48.774;8.732;2022-12-10T15:13:01;2.93;;;2.43;;
8001;SDS011;4046;48.774;8.732;2022-12-10T15:18:01;3.00;;;2.50;;
8001;SDS011;4046;48.774;8.732;2022-12-10T15:20:36;2.53;;;1.93;;
8001;SDS011;4046;48.774;8.732;2022-12-10T15:28:37;2.80;;;2.03;;
8001;SDS011;4046;48.774;8.732;2022-12-10T15:33:53;2.40;;;2.20;;
8001;SDS011;4046;48.774;8.732;2022-12-10T15:36:50;2.33;;;2.13;;
8001;SDS011;4046;48.774;8.732;2022-12-10T15:39:19;3.87;;;2.37;;
8001;SDS011;4046;48.774;8.732;2022-12-10T15:41:58;2.63;;;2.40;;
8001;SDS011;4046;48.774;8.732;2022-12-10T15:44:27;4.47;;;2.60;;
8001;SDS011;4046;48.774;8.732;2022-12-10T15:49:45;12.17;;;4.23;;
8001;SDS011;4046;48.774;8.732;2022-12-10T15:52:13;8.20;;;3.50;;
8001;SDS011;4046;48.774;8.732;2022-12-10T15:54:42;10.53;;;3.77;;
8001;SDS011;4046;48.774;8.732;2022-12-10T15:59:44;9.43;;;3.33;;
8001;SDS011;4046;48.774;8.732;2022-12-10T16:07:41;6.97;;;2.60;;
8001;SDS011;4046;48.774;8.732;2022-12-10T16:10:09;4.00;;;3.30;;
8001;SDS011;4046;48.774;8.732;2022-12-10T16:12:37;3.70;;;2.43;;
8001;SDS011;4046;48.774;8.732;2022-12-10T16:15:04;4.77;;;2.90;;
8001;SDS011;4046;48.774;8.732;2022-12-10T16:17:33;4.47;;;2.50;;
8001;SDS011;4046;48.774;8.732;2022-12-10T16:20:00;3.77;;;2.77;;
8001;SDS011;4046;48.774;8.732;2022-12-10T16:22:42;2.67;;;2.47;;
8001;SDS011;4046;48.774;8.732;2022-12-10T16:25:08;4.00;;;2.63;;
8001;SDS011;4046;48.774;8.732;2022-12-10T16:27:35;4.07;;;2.53;;
8001;SDS011;4046;48.774;8.732;2022-12-10T16:30:10;3.10;;;2.20;;
8001;SDS011;4046;48.774;8.732;2022-12-10T16:32:41;3.13;;;2.43;;
8001;SDS011;4046;48.774;8.732;2022-12-10T16:35:07;4.40;;;2.50;;
8001;SDS011;4046;48.774;8.732;2022-12-10T16:37:33;2.77;;;2.57;;
8001;SDS011;4046;48.774;8.732;2022-12-10T16:40:00;3.30;;;2.60;;
8001;SDS011;4046;48.774;8.732;2022-12-10T16:42:27;2.93;;;2.40;;
8001;SDS011;4046;48.774;8.732;2022-12-10T16:44:53;2.40;;;1.93;;
8001;SDS011;4046;48.774;8.732;2022-12-10T16:47:21;2.70;;;2.50;;
8001;SDS011;4046;48.774;8.732;2022-12-10T16:49:47;2.20;;;2.10;;
8001;SDS011;4046;48.774;8.732;2022-12-10T16:52:13;2.53;;;2.33;;
8001;SDS011;4046;48.774;8.732;2022-12-10T16:54:40;3.07;;;2.20;;
8001;SDS011;4046;48.774;8.732;2022-12-10T16:57:16;3.40;;;2.67;;
8001;SDS011;4046;48.774;8.732;2022-12-10T16:59:42;2.50;;;2.00;;
8001;SDS011;4046;48.774;8.732;2022-12-10T17:02:15;2.53;;;1.90;;
8001;SDS011;4046;48.774;8.732;2022-12-10T17:04:43;2.90;;;2.07;;
8001;SDS011;4046;48.774;8.732;2022-12-10T17:07:09;1.87;;;1.77;;
8001;SDS011;4046;48.774;8.732;2022-12-10T17:09:36;2.30;;;1.87;;
8001;SDS011;4046;48.774;8.732;2022-12-10T17:12:04;3.33;;;2.20;;
8001;SDS011;4046;48.774;8.732;2022-12-10T17:14:41;2.37;;;1.77;;
8001;SDS011;4046;48.774;8.732;2022-12-10T17:17:15;2.27;;;2.10;;
8001;SDS011;4046;48.774;8.732;2022-12-10T17:19:41;2.30;;;2.10;;
8001;SDS011;4046;48.774;8.732;2022-12-10T17:22:08;3.03;;;2.17;;
8001;SDS011;4046;48.774;8.732;2022-12-10T17:24:35;2.43;;;2.13;;
8001;SDS011;4046;48.774;8.732;2022-12-10T17:27:20;2.20;;;2.00;;
8001;SDS011;4046;48.774;8.732;2022-12-10T17:29:47;2.27;;;2.00;;
8001;SDS011;4046;48.774;8.732;2022-12-10T17:32:19;2.00;;;1.80;;
8001;SDS011;4046;48.774;8.732;2022-12-10T17:34:47;1.90;;;1.80;;
8001;SDS011;4046;48.774;8.732;2022-12-10T17:37:15;1.90;;;1.80;;